createdAt,value
2019-01-12T00:00:12.408Z,14.53
2019-01-12T00:02:42.662Z,16.83
2019-01-12T00:05:12.900Z,16.17
2019-01-12T00:07:43.494Z,15.93
2019-01-12T00:10:13.704Z,17.17
2019-01-12T00:12:44.105Z,15.77
2019-01-12T00:15:14.474Z,13.97
2019-01-12T00:17:45.287Z,16.77
2019-01-12T00:20:15.738Z,15.97
2019-01-12T00:22:46.060Z,15.40
2019-01-12T00:25:16.333Z,15.07
2019-01-12T00:27:46.922Z,15.70
2019-01-12T00:30:17.577Z,14.17
2019-01-12T00:32:48.192Z,14.97
2019-01-12T00:35:18.459Z,15.23
2019-01-12T00:37:48.657Z,15.03
2019-01-12T00:40:19.475Z,15.27
2019-01-12T00:42:49.691Z,14.83
2019-01-12T00:45:20.339Z,15.13
2019-01-12T00:47:50.588Z,16.23
2019-01-12T00:50:21.019Z,15.53
2019-01-12T00:52:51.719Z,14.10
2019-01-12T00:55:21.966Z,14.80
2019-01-12T00:57:52.202Z,14.83
2019-01-12T01:00:23.275Z,15.27
2019-01-12T01:02:53.600Z,16.27
2019-01-12T01:05:23.830Z,15.33
2019-01-12T01:07:54.130Z,14.73
2019-01-12T01:10:24.473Z,16.33
2019-01-12T01:12:55.257Z,15.70
2019-01-12T01:15:25.706Z,15.67
2019-01-12T01:17:55.926Z,16.40
2019-01-12T01:20:26.171Z,16.63
2019-01-12T01:22:56.391Z,17.57
2019-01-12T01:25:26.664Z,16.70
2019-01-12T01:27:56.904Z,15.37
2019-01-12T01:30:27.123Z,14.90
2019-01-12T01:32:57.369Z,16.67
2019-01-12T01:35:27.545Z,15.87
2019-01-12T01:37:57.821Z,15.67
2019-01-12T01:40:28.090Z,15.63
2019-01-12T01:42:58.409Z,15.97
2019-01-12T01:45:28.595Z,15.87
2019-01-12T01:47:58.818Z,15.77
2019-01-12T01:50:29.014Z,15.93
2019-01-12T01:52:59.252Z,15.97
2019-01-12T01:55:29.536Z,15.07
2019-01-12T01:58:00.164Z,14.40
2019-01-12T02:00:30.402Z,16.07
2019-01-12T02:03:01.205Z,14.87
2019-01-12T02:05:31.457Z,15.07
2019-01-12T02:08:01.702Z,15.13
2019-01-12T02:10:31.847Z,13.93
2019-01-12T02:13:02.078Z,14.80
2019-01-12T02:15:32.586Z,15.03
2019-01-12T02:18:03.192Z,14.77
2019-01-12T02:20:33.430Z,14.07
2019-01-12T02:23:03.734Z,13.60
2019-01-12T02:25:34.290Z,13.97
2019-01-12T02:28:05.050Z,13.97
2019-01-12T02:30:35.262Z,14.23
2019-01-12T02:33:05.779Z,14.87
2019-01-12T02:35:36.116Z,14.80
2019-01-12T02:38:06.384Z,14.27
2019-01-12T02:40:36.987Z,15.47
2019-01-12T02:43:07.511Z,14.80
2019-01-12T02:45:38.076Z,15.87
2019-01-12T02:48:08.242Z,14.93
2019-01-12T02:50:38.478Z,15.07
2019-01-12T02:53:08.689Z,14.47
2019-01-12T02:55:39.323Z,14.07
2019-01-12T02:58:09.575Z,14.73
2019-01-12T03:00:39.779Z,15.07
2019-01-12T03:03:09.977Z,15.83
2019-01-12T03:05:40.171Z,15.07
2019-01-12T03:08:10.396Z,15.20
2019-01-12T03:10:40.607Z,15.60
2019-01-12T03:13:10.848Z,15.07
2019-01-12T03:15:41.089Z,15.70
2019-01-12T03:18:11.337Z,16.33
2019-01-12T03:20:41.562Z,14.37
2019-01-12T03:23:12.073Z,15.20
2019-01-12T03:25:42.547Z,13.93
2019-01-12T03:28:13.387Z,13.83
2019-01-12T03:30:43.680Z,13.67
2019-01-12T03:33:14.264Z,13.63
2019-01-12T03:35:44.463Z,12.03
2019-01-12T03:38:14.765Z,13.07
2019-01-12T03:40:45.319Z,12.00
2019-01-12T03:43:15.575Z,12.70
2019-01-12T03:45:46.084Z,11.30
2019-01-12T03:48:16.352Z,11.40
2019-01-12T03:50:46.584Z,11.80
2019-01-12T03:53:17.090Z,11.60
2019-01-12T03:55:47.364Z,12.20
2019-01-12T03:58:17.950Z,11.60
2019-01-12T04:00:48.854Z,11.80
2019-01-12T04:03:19.037Z,11.93
2019-01-12T04:05:49.662Z,11.73
2019-01-12T04:08:20.404Z,11.00
2019-01-12T04:10:50.940Z,12.00
2019-01-12T04:13:21.096Z,10.87
2019-01-12T04:15:51.740Z,11.10
2019-01-12T04:18:21.989Z,11.20
2019-01-12T04:20:52.209Z,11.17
2019-01-12T04:23:22.501Z,10.67
2019-01-12T04:25:55.556Z,11.10
2019-01-12T04:28:25.848Z,11.43
2019-01-12T04:30:56.050Z,10.87
2019-01-12T04:33:26.304Z,11.37
2019-01-12T04:35:56.974Z,11.73
2019-01-12T04:38:27.189Z,11.73
2019-01-12T04:40:57.872Z,12.07
2019-01-12T04:43:28.566Z,11.80
2019-01-12T04:45:58.875Z,12.13
2019-01-12T04:48:29.183Z,11.87
2019-01-12T04:50:59.395Z,10.93
2019-01-12T04:53:29.939Z,11.60
2019-01-12T04:56:00.613Z,11.23
2019-01-12T04:58:31.237Z,10.80
2019-01-12T05:01:01.490Z,10.50
2019-01-12T05:03:32.014Z,10.23
2019-01-12T05:06:02.252Z,10.13
2019-01-12T05:08:33.075Z,10.93
2019-01-12T05:11:03.584Z,10.93
2019-01-12T05:13:34.231Z,10.57
2019-01-12T05:16:04.518Z,10.97
2019-01-12T05:18:34.724Z,11.60
2019-01-12T05:21:04.945Z,12.40
2019-01-12T05:23:35.227Z,12.60
2019-01-12T05:26:05.772Z,12.43
2019-01-12T05:28:36.368Z,13.07
2019-01-12T05:31:06.634Z,13.13
2019-01-12T05:33:36.869Z,14.17
2019-01-12T05:36:07.012Z,14.97
2019-01-12T05:38:37.588Z,15.17
2019-01-12T05:41:07.755Z,16.07
2019-01-12T05:43:37.994Z,15.63
2019-01-12T05:46:08.151Z,16.17
2019-01-12T05:48:38.357Z,16.77
2019-01-12T05:51:08.972Z,16.87
2019-01-12T05:53:39.192Z,17.57
2019-01-12T05:56:09.473Z,18.97
2019-01-12T05:58:39.726Z,17.10
2019-01-12T06:01:10.277Z,17.90
2019-01-12T06:03:40.512Z,18.30
2019-01-12T06:06:10.759Z,17.53
2019-01-12T06:08:40.993Z,18.83
2019-01-12T06:11:11.518Z,17.67
2019-01-12T06:13:41.776Z,18.57
2019-01-12T06:16:12.333Z,17.67
2019-01-12T06:18:42.546Z,17.73
2019-01-12T06:21:13.090Z,17.57
2019-01-12T06:23:43.308Z,17.87
2019-01-12T06:26:13.550Z,18.57
2019-01-12T06:28:44.154Z,16.77
2019-01-12T06:31:14.651Z,17.77
2019-01-12T06:33:44.844Z,17.57
2019-01-12T06:36:15.077Z,15.80
2019-01-12T06:38:45.356Z,16.60
2019-01-12T06:41:15.544Z,16.80
2019-01-12T06:43:46.149Z,15.87
2019-01-12T06:46:16.454Z,15.57
2019-01-12T06:48:46.756Z,14.60
2019-01-12T06:51:17.052Z,15.20
2019-01-12T06:53:47.345Z,14.87
2019-01-12T06:56:17.528Z,14.50
2019-01-12T06:58:47.781Z,14.00
2019-01-12T07:01:18.334Z,14.17
2019-01-12T07:03:48.963Z,14.10
2019-01-12T07:06:19.925Z,13.13
2019-01-12T07:08:50.471Z,13.20
2019-01-12T07:11:20.666Z,12.30
2019-01-12T07:13:51.223Z,12.17
2019-01-12T07:16:21.894Z,12.73
2019-01-12T07:18:52.246Z,11.80
2019-01-12T07:21:22.423Z,11.63
2019-01-12T07:23:52.717Z,12.23
2019-01-12T07:26:23.276Z,11.80
2019-01-12T07:28:53.543Z,11.70
2019-01-12T07:31:24.303Z,10.73
2019-01-12T07:33:55.129Z,11.07
2019-01-12T07:36:25.467Z,10.90
2019-01-12T07:38:56.162Z,10.27
2019-01-12T07:41:26.530Z,9.70
2019-01-12T07:43:57.309Z,9.53
2019-01-12T07:46:28.117Z,9.60
2019-01-12T07:48:58.643Z,9.23
2019-01-12T07:51:28.931Z,9.07
2019-01-12T07:53:59.429Z,9.00
2019-01-12T07:56:30.191Z,8.43
2019-01-12T07:59:00.522Z,8.83
2019-01-12T08:01:30.847Z,8.63
2019-01-12T08:04:01.260Z,8.50
2019-01-12T08:06:31.752Z,9.07
2019-01-12T08:09:02.108Z,7.73
2019-01-12T08:11:32.551Z,7.90
2019-01-12T08:14:03.014Z,7.70
2019-01-12T08:16:33.778Z,7.50
2019-01-12T08:19:04.270Z,8.03
2019-01-12T08:21:37.087Z,6.60
2019-01-12T08:24:11.754Z,7.17
2019-01-12T08:26:42.190Z,6.27
2019-01-12T08:29:12.736Z,6.53
2019-01-12T08:31:43.033Z,6.50
2019-01-12T08:34:13.756Z,6.43
2019-01-12T08:36:44.064Z,6.23
2019-01-12T08:39:14.920Z,5.80
2019-01-12T08:41:45.166Z,6.03
2019-01-12T08:44:15.500Z,6.03
2019-01-12T08:46:45.934Z,5.60
2019-01-12T08:49:18.346Z,5.47
2019-01-12T08:51:48.758Z,5.40
2019-01-12T08:54:20.047Z,5.30
2019-01-12T08:56:50.591Z,5.10
2019-01-12T08:59:25.554Z,5.10
2019-01-12T09:01:55.833Z,5.13
2019-01-12T09:04:26.992Z,5.27
2019-01-12T09:06:59.626Z,5.30
2019-01-12T09:09:30.296Z,5.30
2019-01-12T09:12:00.747Z,5.03
2019-01-12T09:14:31.296Z,4.97
2019-01-12T09:17:01.683Z,4.83
2019-01-12T09:19:32.052Z,4.90
2019-01-12T09:22:02.544Z,5.17
2019-01-12T09:24:33.041Z,4.57
2019-01-12T09:27:03.729Z,4.57
2019-01-12T09:29:34.014Z,4.63
2019-01-12T09:32:06.382Z,4.30
2019-01-12T09:34:43.473Z,4.20
2019-01-12T09:37:15.771Z,4.30
2019-01-12T09:39:46.143Z,3.90
2019-01-12T09:42:18.647Z,4.30
2019-01-12T09:44:48.981Z,3.80
2019-01-12T09:47:19.672Z,3.93
2019-01-12T09:49:50.199Z,3.77
2019-01-12T09:52:20.522Z,4.10
2019-01-12T09:54:51.177Z,3.70
2019-01-12T09:57:21.512Z,4.03
2019-01-12T09:59:51.916Z,4.13
2019-01-12T10:02:26.908Z,4.40
2019-01-12T10:04:57.902Z,4.30
2019-01-12T10:07:34.327Z,4.30
2019-01-12T10:10:06.529Z,4.63
2019-01-12T10:12:36.995Z,4.20
2019-01-12T10:15:07.883Z,3.90
2019-01-12T10:17:38.262Z,3.70
2019-01-12T10:20:11.494Z,3.43
2019-01-12T10:22:42.538Z,3.57
2019-01-12T10:25:13.027Z,3.57
2019-01-12T10:27:43.384Z,3.30
2019-01-12T10:30:19.128Z,3.20
2019-01-12T10:32:50.250Z,3.50
2019-01-12T10:35:21.260Z,3.90
2019-01-12T10:37:51.889Z,3.67
2019-01-12T10:40:22.510Z,3.87
2019-01-12T10:43:02.758Z,4.00
2019-01-12T10:45:33.096Z,3.90
2019-01-12T10:48:03.854Z,3.80
2019-01-12T10:50:42.601Z,4.30
2019-01-12T10:53:14.128Z,4.30
2019-01-12T10:55:44.526Z,4.33
2019-01-12T10:58:15.464Z,4.73
2019-01-12T11:00:45.714Z,4.37
2019-01-12T11:03:16.509Z,4.20
2019-01-12T11:05:46.922Z,4.63
2019-01-12T11:08:17.574Z,4.77
2019-01-12T11:10:49.854Z,4.27
2019-01-12T11:13:23.577Z,4.80
2019-01-12T11:15:55.178Z,5.10
2019-01-12T11:18:25.561Z,5.43
2019-01-12T11:20:56.522Z,5.07
2019-01-12T11:23:26.941Z,5.03
2019-01-12T11:25:57.290Z,4.60
2019-01-12T11:28:29.049Z,5.00
2019-01-12T11:31:00.270Z,4.90
2019-01-12T11:33:30.933Z,5.17
2019-01-12T11:36:01.539Z,5.40
2019-01-12T11:38:31.889Z,5.00
2019-01-12T11:41:02.389Z,4.90
2019-01-12T11:43:32.915Z,5.13
2019-01-12T11:46:03.331Z,5.23
2019-01-12T11:48:34.041Z,5.27
2019-01-12T11:51:13.675Z,5.23
2019-01-12T11:53:44.084Z,5.40
2019-01-12T11:56:15.064Z,4.73
2019-01-12T11:58:45.423Z,5.30
2019-01-12T12:01:16.033Z,4.87
2019-01-12T12:03:46.361Z,4.73
2019-01-12T12:06:17.383Z,5.07
2019-01-12T12:08:48.193Z,5.27
2019-01-12T12:11:18.929Z,4.87
2019-01-12T12:13:49.217Z,5.10
2019-01-12T12:16:20.793Z,5.00
2019-01-12T12:18:51.223Z,5.40
2019-01-12T12:21:21.719Z,5.40
2019-01-12T12:23:52.288Z,4.50
2019-01-12T12:26:22.972Z,5.20
2019-01-12T12:28:53.658Z,5.20
2019-01-12T12:31:25.131Z,5.00
2019-01-12T12:33:57.961Z,5.00
2019-01-12T12:36:28.511Z,5.30
2019-01-12T12:38:59.107Z,5.50
2019-01-12T12:41:31.455Z,4.97
2019-01-12T12:44:02.087Z,5.23
2019-01-12T12:46:32.843Z,5.20
2019-01-12T12:49:03.310Z,5.73
2019-01-12T12:51:33.922Z,5.30
2019-01-12T12:54:04.403Z,5.03
2019-01-12T12:56:35.057Z,5.57
2019-01-12T12:59:05.566Z,5.20
2019-01-12T13:01:35.927Z,6.03
2019-01-12T13:04:06.715Z,5.60
2019-01-12T13:06:37.551Z,5.47
2019-01-12T13:09:09.302Z,5.90
2019-01-12T13:11:39.754Z,5.30
2019-01-12T13:14:11.346Z,5.23
2019-01-12T13:16:42.142Z,6.10
2019-01-12T13:19:12.941Z,5.90
2019-01-12T13:21:43.352Z,5.97
2019-01-12T13:24:14.124Z,6.07
2019-01-12T13:26:45.001Z,5.43
2019-01-12T13:29:15.670Z,5.30
2019-01-12T13:31:46.142Z,6.30
2019-01-12T13:34:16.476Z,5.70
2019-01-12T13:36:47.099Z,5.50
2019-01-12T13:39:17.819Z,5.70
2019-01-12T13:41:48.529Z,5.27
2019-01-12T13:44:18.987Z,5.80
2019-01-12T13:46:49.382Z,5.40
2019-01-12T13:49:19.871Z,5.70
2019-01-12T13:51:50.160Z,5.50
2019-01-12T13:54:20.629Z,5.20
2019-01-12T13:56:51.047Z,5.47
2019-01-12T13:59:21.372Z,5.80
2019-01-12T14:01:51.776Z,5.80
2019-01-12T14:04:28.610Z,5.63
2019-01-12T14:07:00.815Z,5.40
2019-01-12T14:09:31.599Z,6.17
2019-01-12T14:12:02.280Z,6.00
2019-01-12T14:14:32.718Z,5.90
2019-01-12T14:17:06.159Z,5.47
2019-01-12T14:19:36.575Z,5.87
2019-01-12T14:22:07.725Z,6.27
2019-01-12T14:24:38.241Z,6.43
2019-01-12T14:27:08.728Z,6.07
2019-01-12T14:29:39.630Z,6.80
2019-01-12T14:32:10.754Z,6.63
2019-01-12T14:34:41.145Z,5.97
2019-01-12T14:37:11.509Z,6.23
2019-01-12T14:39:42.183Z,6.20
2019-01-12T14:42:12.520Z,6.53
2019-01-12T14:44:42.898Z,6.53
2019-01-12T14:47:13.631Z,6.90
2019-01-12T14:49:48.070Z,6.23
2019-01-12T14:52:18.705Z,7.23
2019-01-12T14:54:50.946Z,6.83
2019-01-12T14:57:26.146Z,6.07
2019-01-12T14:59:56.565Z,6.40
2019-01-12T15:02:26.980Z,6.43
2019-01-12T15:04:57.608Z,6.77
2019-01-12T15:07:28.304Z,6.60
2019-01-12T15:09:58.861Z,6.40
2019-01-12T15:12:29.530Z,6.63
2019-01-12T15:15:00.255Z,6.60
2019-01-12T15:17:31.100Z,6.83
2019-01-12T15:20:01.518Z,6.20
2019-01-12T15:22:32.426Z,7.20
2019-01-12T15:25:02.728Z,6.30
2019-01-12T15:27:33.030Z,6.63
2019-01-12T15:30:03.845Z,6.10
2019-01-12T15:32:34.316Z,6.23
2019-01-12T15:35:05.210Z,7.40
2019-01-12T15:37:36.089Z,5.87
2019-01-12T15:40:07.866Z,6.77
2019-01-12T15:42:38.184Z,6.30
2019-01-12T15:45:11.470Z,6.13
2019-01-12T15:47:41.766Z,5.90
2019-01-12T15:50:15.393Z,5.50
2019-01-12T15:52:45.820Z,5.30
2019-01-12T15:55:16.252Z,5.63
2019-01-12T15:57:46.539Z,5.10
2019-01-12T16:00:21.757Z,5.50
2019-01-12T16:02:52.154Z,5.00
2019-01-12T16:05:22.477Z,5.00
2019-01-12T16:07:53.025Z,4.93
2019-01-12T16:10:23.874Z,5.60
2019-01-12T16:12:55.049Z,5.10
2019-01-12T16:15:26.872Z,5.00
2019-01-12T16:17:58.543Z,4.87
2019-01-12T16:20:32.162Z,4.93
2019-01-12T16:23:02.487Z,4.77
2019-01-12T16:25:33.115Z,5.23
2019-01-12T16:28:03.366Z,5.00
2019-01-12T16:30:33.615Z,4.90
2019-01-12T16:33:03.983Z,5.03
2019-01-12T16:35:34.366Z,5.47
2019-01-12T16:38:05.430Z,4.73
2019-01-12T16:40:36.213Z,5.27
2019-01-12T16:43:06.491Z,4.43
2019-01-12T16:45:36.763Z,4.70
2019-01-12T16:48:07.587Z,4.90
2019-01-12T16:50:37.994Z,4.33
2019-01-12T16:53:08.203Z,4.63
2019-01-12T16:55:38.327Z,4.77
2019-01-12T16:58:08.542Z,4.20
2019-01-12T17:00:38.791Z,4.73
2019-01-12T17:03:09.384Z,4.30
2019-01-12T17:05:40.116Z,4.43
2019-01-12T17:08:10.792Z,4.53
2019-01-12T17:10:41.071Z,4.60
2019-01-12T17:13:11.572Z,4.60
2019-01-12T17:15:42.092Z,4.43
2019-01-12T17:18:12.640Z,4.73
2019-01-12T17:20:42.861Z,4.43
2019-01-12T17:23:13.107Z,4.87
2019-01-12T17:25:43.385Z,4.80
2019-01-12T17:28:13.743Z,4.50
2019-01-12T17:30:44.056Z,4.60
2019-01-12T17:33:14.214Z,4.40
2019-01-12T17:35:44.417Z,4.37
2019-01-12T17:38:15.075Z,4.40
2019-01-12T17:40:45.259Z,4.60
2019-01-12T17:43:15.625Z,3.70
2019-01-12T17:45:47.091Z,4.00
2019-01-12T17:48:17.314Z,3.93
2019-01-12T17:50:47.538Z,4.13
2019-01-12T17:53:18.223Z,3.83
2019-01-12T17:55:48.521Z,4.13
2019-01-12T17:58:19.057Z,4.80
2019-01-12T18:00:53.584Z,3.23
2019-01-12T18:03:23.921Z,3.67
2019-01-12T18:05:54.463Z,3.53
2019-01-12T18:08:24.744Z,2.83
2019-01-12T18:10:55.291Z,3.03
2019-01-12T18:13:25.885Z,2.90
2019-01-12T18:15:56.073Z,2.87
2019-01-12T18:18:26.583Z,2.60
2019-01-12T18:20:56.815Z,3.23
2019-01-12T18:23:27.177Z,3.17
2019-01-12T18:25:57.610Z,2.50
2019-01-12T18:28:28.579Z,2.30
2019-01-12T18:30:58.737Z,2.60
2019-01-12T18:33:29.622Z,2.53
2019-01-12T18:35:59.883Z,2.90
2019-01-12T18:38:30.002Z,2.30
2019-01-12T18:41:00.543Z,2.50
2019-01-12T18:43:30.983Z,2.63
2019-01-12T18:46:01.263Z,2.70
2019-01-12T18:48:31.773Z,2.70
2019-01-12T18:51:02.043Z,2.93
2019-01-12T18:53:32.281Z,3.10
2019-01-12T18:56:02.573Z,3.10
2019-01-12T18:58:32.749Z,3.10
2019-01-12T19:01:03.695Z,3.20
2019-01-12T19:03:33.997Z,3.47
2019-01-12T19:06:04.203Z,3.57
2019-01-12T19:08:34.438Z,3.40
2019-01-12T19:11:04.938Z,3.40
2019-01-12T19:13:35.599Z,3.43
2019-01-12T19:16:06.236Z,3.10
2019-01-12T19:18:36.848Z,3.10
2019-01-12T19:21:07.650Z,2.58
2019-01-12T19:23:37.864Z,2.93
2019-01-12T19:26:08.442Z,2.80
2019-01-12T19:28:38.621Z,2.70
2019-01-12T19:31:08.930Z,2.90
2019-01-12T19:33:39.573Z,2.60
2019-01-12T19:36:09.771Z,2.50
2019-01-12T19:38:39.874Z,2.33
2019-01-12T19:41:10.490Z,2.60
2019-01-12T19:43:40.664Z,2.30
2019-01-12T19:46:11.232Z,2.20
2019-01-12T19:48:41.462Z,2.00
2019-01-12T19:51:11.640Z,2.53
2019-01-12T19:53:42.284Z,1.90
2019-01-12T19:56:12.577Z,2.07
2019-01-12T19:58:42.826Z,2.20
2019-01-12T20:01:13.155Z,2.27
2019-01-12T20:03:43.626Z,2.20
2019-01-12T20:06:17.145Z,2.20
2019-01-12T20:08:46.009Z,2.13
2019-01-12T20:11:16.407Z,2.20
2019-01-12T20:13:46.922Z,2.40
2019-01-12T20:16:17.790Z,2.37
2019-01-12T20:18:48.374Z,2.67
2019-01-12T20:21:18.596Z,3.03
2019-01-12T20:23:48.876Z,3.10
2019-01-12T20:26:19.047Z,2.63
2019-01-12T20:28:49.516Z,3.23
2019-01-12T20:31:51.317Z,2.70
2019-01-12T20:34:44.036Z,2.70
2019-01-12T20:38:04.307Z,2.77
2019-01-12T20:40:49.741Z,2.40
2019-01-12T20:43:55.719Z,2.77
2019-01-12T20:46:40.951Z,2.33
2019-01-12T20:49:37.155Z,2.70
2019-01-12T20:53:03.271Z,2.57
2019-01-12T20:56:30.000Z,2.33
2019-01-12T20:59:29.268Z,3.00
2019-01-12T21:02:25.821Z,2.33
2019-01-12T21:05:42.838Z,2.93
2019-01-12T21:08:41.099Z,2.60
2019-01-12T21:11:52.652Z,2.30
2019-01-12T21:14:46.258Z,2.70
2019-01-12T21:17:17.853Z,2.60
2019-01-12T21:19:48.594Z,2.63
2019-01-12T21:22:18.741Z,2.90
2019-01-12T21:24:48.981Z,2.80
2019-01-12T21:27:19.288Z,2.70
2019-01-12T21:29:50.012Z,2.80
2019-01-12T21:32:20.216Z,2.60
2019-01-12T21:34:50.509Z,3.20
2019-01-12T21:37:20.789Z,2.40
2019-01-12T21:39:50.970Z,2.50
2019-01-12T21:42:21.211Z,2.50
2019-01-12T21:44:51.410Z,2.57
2019-01-12T21:47:21.563Z,2.47
2019-01-12T21:49:52.230Z,3.03
2019-01-12T21:52:22.922Z,2.57
2019-01-12T21:54:53.388Z,3.10
2019-01-12T21:57:23.616Z,2.93
2019-01-12T21:59:54.140Z,2.80
2019-01-12T22:02:25.294Z,3.00
2019-01-12T22:04:55.528Z,2.73
2019-01-12T22:07:25.710Z,2.77
2019-01-12T22:09:55.968Z,2.93
2019-01-12T22:12:26.536Z,3.03
2019-01-12T22:14:56.755Z,2.13
2019-01-12T22:17:26.963Z,2.43
2019-01-12T22:19:57.784Z,2.97
2019-01-12T22:22:28.685Z,2.50
2019-01-12T22:24:59.185Z,2.97
2019-01-12T22:27:29.339Z,2.73
2019-01-12T22:29:59.943Z,2.93
2019-01-12T22:32:30.216Z,2.80
2019-01-12T22:35:00.504Z,2.70
2019-01-12T22:37:31.017Z,2.67
2019-01-12T22:40:01.504Z,2.57
2019-01-12T22:42:31.711Z,2.60
2019-01-12T22:45:01.881Z,2.77
2019-01-12T22:47:32.066Z,3.40
2019-01-12T22:50:02.213Z,3.13
2019-01-12T22:52:32.818Z,3.23
2019-01-12T22:55:03.355Z,3.47
2019-01-12T22:57:33.798Z,3.90
2019-01-12T23:00:06.223Z,4.07
2019-01-12T23:02:36.507Z,4.10
2019-01-12T23:05:07.176Z,4.50
2019-01-12T23:07:37.413Z,4.67
2019-01-12T23:10:08.334Z,5.40
2019-01-12T23:12:38.571Z,5.33
2019-01-12T23:15:09.199Z,5.07
2019-01-12T23:17:39.363Z,5.30
2019-01-12T23:20:10.142Z,5.43
2019-01-12T23:22:40.375Z,5.27
2019-01-12T23:25:10.793Z,5.40
2019-01-12T23:27:41.041Z,5.30
2019-01-12T23:30:12.472Z,5.80
2019-01-12T23:32:43.023Z,5.73
2019-01-12T23:35:13.237Z,6.00
2019-01-12T23:37:43.874Z,6.13
2019-01-12T23:40:15.138Z,6.53
2019-01-12T23:42:45.357Z,6.97
2019-01-12T23:45:15.916Z,6.77
2019-01-12T23:47:46.139Z,6.70
2019-01-12T23:50:16.332Z,6.83
2019-01-12T23:52:46.950Z,7.17
2019-01-12T23:55:17.214Z,7.73
2019-01-12T23:57:47.339Z,6.77
